GEML

Melilla Airport

Melilla, Spain
TAF GEML 260800Z 2609/2709 27008KT 8000 FEW008 SCT015 TX18/2614Z TN14/2707Z PROB40 TEMPO 2609/2620 4000 RA BR BKN008
Issued Valid From Valid To
Apr-26 @ 08:00 UTC
(6 hours ago)
Apr-26 @ 09:00 UTC
(5 hours ago)
Apr-27 @ 09:00 UTC
(in 19 hours)
Apr-26 @ 09:00 to Apr-27 @ 09:00
TAF GEML 260800Z 2609/2709 27008KT 8000 FEW008 SCT015 TX18/2614Z TN14/2707Z
Wind Visibility Clouds
270° at 8 knots 7,998 meters
  • Few at 800' AGL
  • Scattered at 1,500' AGL
Temporary  (Probability 40%) Apr-26 @ 09:00 to Apr-26 @ 20:00
PROB40 TEMPO 2609/2620 4000 RA BR BKN008
Visibility Clouds Conditions
4,007 meters
  • Broken at 800' AGL
  • Rain
  • Mist
TAF GEML 260800Z 2609/2709 27008KT 8000 FEW008 SCT015 TX18/2614Z TN14/2707Z PROB40 TEMPO 2609/2620 4000 RA BR BKN008
Issued Apr-26 @ 08:00 UTC
(6 hours ago)
Valid From Apr-26 @ 09:00 UTC
(5 hours ago)
Valid To Apr-27 @ 09:00 UTC
(in 19 hours)
Apr-26 @ 09:00 - Apr-27 @ 09:00
Wind Visibility
270° at 8 knots 7,998 meters
Clouds
  • Few at 800' AGL
  • Scattered at 1,500' AGL
Probability 40% Temporary Apr-26 @ 09:00 - Apr-26 @ 20:00
Clouds
  • Broken at 800' AGL
Conditions
  • Rain
  • Mist